createdAt,value
2023-04-02T00:00:01.066Z,8.91
2023-04-02T00:02:31.533Z,8.79
2023-04-02T00:05:16.790Z,8.80
2023-04-02T00:07:48.996Z,8.83
2023-04-02T00:10:35.669Z,8.88
2023-04-02T00:13:11.978Z,9.01
2023-04-02T00:15:43.971Z,9.03
2023-04-02T00:18:16.530Z,8.41
2023-04-02T00:20:47.833Z,8.90
2023-04-02T00:23:15.643Z,8.87
2023-04-02T00:25:45.528Z,8.87
2023-04-02T00:28:20.843Z,8.14
2023-04-02T00:30:54.149Z,8.51
2023-04-02T00:33:22.199Z,8.87
2023-04-02T00:35:51.150Z,8.71
2023-04-02T00:38:31.700Z,8.55
2023-04-02T00:41:07.266Z,8.67
2023-04-02T00:43:39.715Z,9.12
2023-04-02T00:46:15.927Z,9.10
2023-04-02T00:48:59.646Z,9.22
2023-04-02T00:51:30.019Z,9.24
2023-04-02T00:54:00.475Z,9.13
2023-04-02T00:56:42.597Z,8.69
2023-04-02T00:59:20.735Z,9.36
2023-04-02T01:01:54.365Z,9.44
2023-04-02T01:04:36.496Z,8.83
2023-04-02T01:07:07.271Z,9.40
2023-04-02T01:10:00.378Z,9.40
2023-04-02T01:12:53.286Z,8.86
2023-04-02T01:15:24.663Z,9.40
2023-04-02T01:18:13.775Z,9.45
2023-04-02T01:20:59.648Z,9.37
2023-04-02T01:23:42.083Z,9.27
2023-04-02T01:26:27.323Z,9.25
2023-04-02T01:29:06.875Z,9.10
2023-04-02T01:31:34.738Z,8.79
2023-04-02T01:34:06.082Z,9.12
2023-04-02T01:36:41.516Z,8.97
2023-04-02T01:39:42.033Z,8.90
2023-04-02T01:42:23.388Z,8.73
2023-04-02T01:44:52.549Z,8.60
2023-04-02T01:47:28.931Z,8.88
2023-04-02T01:50:02.767Z,8.99
2023-04-02T01:52:42.320Z,9.09
2023-04-02T01:55:13.200Z,8.48
2023-04-02T01:57:47.440Z,9.14
2023-04-02T02:00:15.943Z,9.18
2023-04-02T02:02:46.410Z,9.12
2023-04-02T02:05:16.311Z,9.27
2023-04-02T02:07:43.513Z,9.71
2023-04-02T02:10:33.818Z,9.91
2023-04-02T02:13:01.247Z,9.51
2023-04-02T02:15:28.785Z,9.65
2023-04-02T02:18:03.225Z,10.24
2023-04-02T02:20:31.230Z,9.78
2023-04-02T02:22:58.832Z,9.98
2023-04-02T02:25:30.446Z,10.31
2023-04-02T02:27:57.062Z,10.35
2023-04-02T02:30:29.012Z,10.39
2023-04-02T02:33:06.721Z,9.95
2023-04-02T02:35:43.116Z,10.32
2023-04-02T02:38:34.737Z,10.19
2023-04-02T02:41:17.828Z,10.16
2023-04-02T02:44:00.688Z,10.17
2023-04-02T02:46:29.435Z,9.86
2023-04-02T02:48:59.127Z,10.20
2023-04-02T02:51:38.200Z,10.10
2023-04-02T02:54:06.146Z,10.09
2023-04-02T02:56:38.827Z,10.03
2023-04-02T02:59:08.619Z,10.03
2023-04-02T03:01:35.871Z,9.95
2023-04-02T03:04:03.592Z,9.57
2023-04-02T03:06:30.996Z,9.83
2023-04-02T03:09:03.954Z,9.82
2023-04-02T03:12:03.079Z,9.73
2023-04-02T03:14:42.004Z,9.69
2023-04-02T03:17:21.425Z,9.32
2023-04-02T03:19:58.446Z,9.14
2023-04-02T03:22:52.190Z,9.63
2023-04-02T03:25:31.919Z,9.46
2023-04-02T03:28:04.038Z,9.39
2023-04-02T03:30:52.294Z,9.51
2023-04-02T03:33:30.130Z,9.04
2023-04-02T03:36:25.775Z,9.33
2023-04-02T03:39:23.961Z,9.27
2023-04-02T03:42:00.434Z,9.27
2023-04-02T03:44:54.876Z,8.92
2023-04-02T03:47:40.064Z,9.26
2023-04-02T03:50:17.044Z,9.20
2023-04-02T03:52:43.769Z,8.69
2023-04-02T03:55:18.078Z,8.81
2023-04-02T03:57:55.783Z,9.20
2023-04-02T04:01:00.981Z,9.28
2023-04-02T04:03:37.625Z,8.91
2023-04-02T04:06:07.431Z,9.44
2023-04-02T04:08:58.307Z,9.18
2023-04-02T04:11:30.962Z,9.15
2023-04-02T04:14:00.347Z,9.23
2023-04-02T04:16:32.804Z,9.49
2023-04-02T04:19:05.128Z,9.61
2023-04-02T04:21:37.757Z,7.72
2023-04-02T04:24:07.925Z,9.72
2023-04-02T04:26:56.919Z,9.73
2023-04-02T04:29:40.830Z,9.79
2023-04-02T04:32:27.628Z,9.20
2023-04-02T04:35:35.164Z,9.71
2023-04-02T04:38:14.485Z,9.73
2023-04-02T04:40:54.173Z,9.55
2023-04-02T04:43:52.536Z,9.74
2023-04-02T04:46:29.125Z,9.69
2023-04-02T04:49:11.744Z,9.81
2023-04-02T04:51:58.484Z,9.84
2023-04-02T04:54:28.804Z,9.68
2023-04-02T04:57:01.214Z,9.81
2023-04-02T04:59:35.443Z,9.91
2023-04-02T05:02:02.018Z,9.68
2023-04-02T05:04:52.689Z,8.97
2023-04-02T05:07:36.469Z,8.48
2023-04-02T05:10:38.855Z,8.87
2023-04-02T05:13:21.232Z,8.93
2023-04-02T05:16:26.396Z,9.15
2023-04-02T05:19:16.454Z,9.20
2023-04-02T05:21:53.784Z,9.89
2023-04-02T05:24:34.104Z,10.11
2023-04-02T05:27:05.457Z,10.27
2023-04-02T05:29:37.167Z,10.65
2023-04-02T05:32:03.768Z,11.20
2023-04-02T05:34:34.974Z,11.45
2023-04-02T05:37:01.995Z,11.59
2023-04-02T05:39:28.821Z,11.69
2023-04-02T05:42:03.700Z,11.76
2023-04-02T05:44:38.649Z,11.67
2023-04-02T05:47:13.976Z,11.95
2023-04-02T05:49:49.264Z,12.16
2023-04-02T05:52:23.216Z,12.31
2023-04-02T05:55:12.614Z,11.70
2023-04-02T05:57:49.693Z,12.29
2023-04-02T06:00:37.430Z,12.30
2023-04-02T06:03:31.218Z,12.32
2023-04-02T06:06:03.830Z,12.36
2023-04-02T06:08:40.772Z,12.38
2023-04-02T06:11:26.607Z,12.07
2023-04-02T06:13:53.348Z,12.44
2023-04-02T06:16:25.312Z,12.54
2023-04-02T06:18:51.985Z,12.45
2023-04-02T06:21:21.271Z,12.85
2023-04-02T06:23:59.244Z,12.42
2023-04-02T06:26:39.860Z,13.17
2023-04-02T06:29:11.084Z,13.36
2023-04-02T06:31:49.535Z,13.55
2023-04-02T06:34:19.262Z,13.62
2023-04-02T06:36:48.013Z,13.77
2023-04-02T06:39:22.237Z,13.96
2023-04-02T06:42:07.600Z,14.15
2023-04-02T06:44:38.025Z,14.06
2023-04-02T06:47:14.817Z,14.09
2023-04-02T06:49:47.067Z,13.99
2023-04-02T06:52:40.399Z,14.02
2023-04-02T06:55:46.677Z,14.00
2023-04-02T06:58:15.899Z,13.80
2023-04-02T07:00:46.143Z,13.89
2023-04-02T07:03:30.721Z,13.43
2023-04-02T07:05:59.171Z,13.74
2023-04-02T07:08:26.029Z,14.10
2023-04-02T07:10:52.665Z,13.89
2023-04-02T07:13:22.478Z,14.40
2023-04-02T07:15:52.615Z,14.22
2023-04-02T07:18:24.071Z,14.50
2023-04-02T07:20:52.113Z,14.64
2023-04-02T07:23:21.096Z,14.74
2023-04-02T07:25:49.666Z,14.63
2023-04-02T07:28:16.868Z,14.58
2023-04-02T07:30:44.083Z,14.46
2023-04-02T07:33:17.645Z,14.83
2023-04-02T07:35:44.790Z,14.84
2023-04-02T07:38:11.953Z,14.90
2023-04-02T07:40:38.956Z,15.10
2023-04-02T07:43:06.292Z,15.27
2023-04-02T07:45:33.048Z,15.27
2023-04-02T07:48:07.375Z,15.36
2023-04-02T07:50:34.652Z,15.26
2023-04-02T07:53:01.524Z,15.36
2023-04-02T07:55:28.655Z,14.76
2023-04-02T07:57:57.764Z,15.87
2023-04-02T08:00:25.573Z,15.88
2023-04-02T08:02:52.819Z,15.66
2023-04-02T08:05:19.578Z,16.02
2023-04-02T08:07:56.121Z,16.17
2023-04-02T08:10:23.837Z,16.05
2023-04-02T08:12:50.830Z,15.44
2023-04-02T08:15:17.937Z,16.06
2023-04-02T08:17:46.659Z,15.80
2023-04-02T08:20:22.531Z,16.18
2023-04-02T08:22:50.677Z,16.00
2023-04-02T08:25:18.088Z,15.77
2023-04-02T08:27:47.362Z,16.13
2023-04-02T08:30:14.684Z,16.23
2023-04-02T08:32:41.640Z,16.53
2023-04-02T08:35:11.099Z,16.39
2023-04-02T08:37:38.017Z,16.36
2023-04-02T08:40:07.473Z,16.53
2023-04-02T08:42:58.078Z,16.86
2023-04-02T08:45:44.906Z,17.15
2023-04-02T08:48:12.953Z,17.30
2023-04-02T08:50:42.155Z,17.42
2023-04-02T08:53:37.362Z,16.97
2023-04-02T08:56:19.039Z,17.08
2023-04-02T08:58:53.664Z,17.11
2023-04-02T09:01:26.486Z,17.40
2023-04-02T09:03:57.361Z,17.38
2023-04-02T09:06:25.080Z,17.53
2023-04-02T09:08:53.151Z,17.44
2023-04-02T09:11:27.384Z,17.80
2023-04-02T09:14:00.400Z,17.39
2023-04-02T09:16:46.616Z,17.77
2023-04-02T09:19:30.416Z,17.95
2023-04-02T09:22:17.493Z,18.17
2023-04-02T09:24:44.089Z,17.73
2023-04-02T09:27:40.107Z,18.16
2023-04-02T09:30:14.520Z,18.26
2023-04-02T09:32:54.704Z,18.39
2023-04-02T09:35:29.719Z,18.33
2023-04-02T09:38:18.032Z,18.30
2023-04-02T09:40:52.340Z,18.56
2023-04-02T09:43:24.819Z,18.50
2023-04-02T09:45:59.438Z,18.41
2023-04-02T09:48:35.489Z,17.73
2023-04-02T09:51:06.976Z,18.56
2023-04-02T09:53:36.934Z,18.60
2023-04-02T09:56:13.294Z,18.71
2023-04-02T09:58:41.859Z,18.94
2023-04-02T10:01:39.449Z,18.67
2023-04-02T10:04:27.384Z,18.77
2023-04-02T10:06:57.924Z,19.07
2023-04-02T10:09:36.422Z,19.22
2023-04-02T10:12:07.389Z,19.39
2023-04-02T10:14:38.618Z,19.58
2023-04-02T10:17:17.908Z,19.71
2023-04-02T10:19:54.921Z,19.69
2023-04-02T10:22:23.218Z,19.76
2023-04-02T10:24:50.900Z,19.96
2023-04-02T10:27:30.054Z,19.94
2023-04-02T10:30:15.981Z,19.97
2023-04-02T10:33:05.524Z,20.22
2023-04-02T10:35:47.137Z,20.27
2023-04-02T10:38:22.873Z,19.96
2023-04-02T10:40:59.558Z,19.82
2023-04-02T10:44:19.047Z,19.86
2023-04-02T10:47:02.153Z,19.78
2023-04-02T10:49:37.483Z,19.91
2023-04-02T10:52:28.910Z,20.09
2023-04-02T10:55:01.604Z,20.22
2023-04-02T10:57:40.998Z,20.23
2023-04-02T11:00:34.568Z,20.32
2023-04-02T11:03:09.466Z,20.48
2023-04-02T11:05:44.476Z,20.26
2023-04-02T11:08:11.069Z,20.55
2023-04-02T11:10:45.082Z,19.95
2023-04-02T11:13:14.637Z,20.05
2023-04-02T11:15:42.010Z,19.99
2023-04-02T11:18:22.399Z,20.07
2023-04-02T11:20:48.961Z,20.07
2023-04-02T11:23:19.384Z,20.32
2023-04-02T11:25:47.453Z,20.41
2023-04-02T11:28:26.244Z,19.95
2023-04-02T11:30:53.666Z,20.09
2023-04-02T11:33:44.787Z,20.05
2023-04-02T11:36:50.231Z,20.26
2023-04-02T11:39:55.261Z,20.20
2023-04-02T11:42:27.404Z,19.93
2023-04-02T11:44:55.766Z,19.96
2023-04-02T11:47:24.228Z,20.13
2023-04-02T11:50:03.406Z,20.06
2023-04-02T11:52:45.478Z,19.91
2023-04-02T11:55:27.146Z,19.72
2023-04-02T11:58:02.489Z,19.85
2023-04-02T12:00:51.118Z,20.02
2023-04-02T12:03:30.137Z,20.06
2023-04-02T12:06:18.910Z,20.16
2023-04-02T12:08:57.871Z,20.38
2023-04-02T12:11:38.240Z,20.59
2023-04-02T12:14:31.078Z,21.02
2023-04-02T12:16:58.072Z,21.06
2023-04-02T12:19:26.069Z,21.13
2023-04-02T12:21:53.738Z,21.10
2023-04-02T12:24:23.863Z,20.52
2023-04-02T12:27:08.696Z,21.15
2023-04-02T12:29:36.320Z,21.17
2023-04-02T12:32:04.145Z,21.14
2023-04-02T12:34:31.207Z,20.66
2023-04-02T12:37:02.984Z,21.43
2023-04-02T12:39:31.659Z,21.41
2023-04-02T12:41:58.777Z,21.21
2023-04-02T12:44:28.269Z,21.48
2023-04-02T12:46:56.189Z,21.71
2023-04-02T12:49:34.896Z,21.38
2023-04-02T12:52:11.279Z,21.55
2023-04-02T12:54:46.604Z,21.37
2023-04-02T12:57:25.550Z,21.44
2023-04-02T13:00:21.281Z,21.75
2023-04-02T13:03:18.697Z,21.79
2023-04-02T13:05:50.104Z,21.71
2023-04-02T13:08:17.969Z,21.83
2023-04-02T13:10:45.377Z,22.01
2023-04-02T13:13:18.300Z,21.43
2023-04-02T13:15:45.006Z,22.20
2023-04-02T13:18:14.318Z,22.27
2023-04-02T13:20:42.744Z,22.12
2023-04-02T13:23:27.575Z,21.87
2023-04-02T13:25:55.958Z,21.29
2023-04-02T13:28:22.722Z,21.46
2023-04-02T13:30:49.535Z,20.63
2023-04-02T13:33:16.752Z,21.77
2023-04-02T13:35:44.566Z,22.22
2023-04-02T13:38:11.338Z,22.68
2023-04-02T13:40:39.140Z,23.30
2023-04-02T13:43:06.674Z,21.64
2023-04-02T13:45:37.316Z,21.31
2023-04-02T13:48:05.167Z,22.40
2023-04-02T13:50:34.419Z,23.18
2023-04-02T13:53:09.697Z,23.52
2023-04-02T13:55:42.154Z,24.49
2023-04-02T13:58:08.722Z,25.19
2023-04-02T14:00:37.801Z,25.36
2023-04-02T14:03:11.447Z,24.07
2023-04-02T14:05:59.212Z,23.81
2023-04-02T14:08:50.344Z,24.75
2023-04-02T14:11:36.592Z,25.11
2023-04-02T14:14:03.160Z,23.94
2023-04-02T14:16:35.556Z,24.30
2023-04-02T14:19:28.929Z,23.83
2023-04-02T14:22:08.934Z,22.83
2023-04-02T14:24:57.670Z,23.56
2023-04-02T14:27:45.582Z,22.99
2023-04-02T14:30:23.278Z,23.03
2023-04-02T14:33:01.565Z,22.31
2023-04-02T14:35:42.837Z,19.82
2023-04-02T14:38:36.902Z,21.20
2023-04-02T14:41:11.525Z,20.14
2023-04-02T14:43:44.714Z,18.79
2023-04-02T14:46:11.708Z,19.06
2023-04-02T14:49:00.130Z,19.28
2023-04-02T14:51:34.772Z,19.16
2023-04-02T14:54:15.067Z,19.15
2023-04-02T14:56:52.445Z,18.90
2023-04-02T14:59:34.895Z,19.05
2023-04-02T15:02:30.908Z,19.06
2023-04-02T15:05:02.293Z,19.05
2023-04-02T15:07:49.654Z,18.14
2023-04-02T15:10:19.102Z,18.44
2023-04-02T15:12:48.550Z,18.38
2023-04-02T15:15:40.262Z,18.60
2023-04-02T15:18:17.273Z,18.28
2023-04-02T15:21:08.462Z,18.13
2023-04-02T15:23:41.026Z,18.35
2023-04-02T15:26:18.424Z,18.08
2023-04-02T15:29:25.828Z,17.93
2023-04-02T15:32:16.440Z,17.59
2023-04-02T15:34:55.348Z,17.56
2023-04-02T15:37:35.644Z,17.28
2023-04-02T15:40:20.331Z,17.39
2023-04-02T15:42:56.881Z,17.27
2023-04-02T15:45:53.941Z,16.88
2023-04-02T15:48:57.605Z,17.27
2023-04-02T15:51:42.903Z,17.34
2023-04-02T15:54:28.205Z,17.25
2023-04-02T15:57:21.499Z,17.08
2023-04-02T16:00:19.595Z,17.29
2023-04-02T16:02:46.294Z,17.12
2023-04-02T16:05:12.889Z,17.04
2023-04-02T16:07:40.311Z,17.07
2023-04-02T16:10:40.048Z,16.32
2023-04-02T16:13:19.477Z,16.67
2023-04-02T16:16:02.333Z,16.82
2023-04-02T16:19:15.982Z,16.96
2023-04-02T16:21:47.141Z,16.85
2023-04-02T16:24:13.841Z,16.55
2023-04-02T16:26:58.983Z,16.57
2023-04-02T16:30:03.360Z,16.55
2023-04-02T16:32:48.071Z,16.43
2023-04-02T16:35:46.930Z,15.47
2023-04-02T16:38:31.802Z,16.06
2023-04-02T16:41:43.588Z,16.13
2023-04-02T16:44:25.430Z,16.02
2023-04-02T16:47:16.829Z,15.96
2023-04-02T16:50:08.413Z,15.96
2023-04-02T16:52:47.218Z,15.86
2023-04-02T16:55:38.423Z,15.78
2023-04-02T16:58:14.144Z,15.41
2023-04-02T17:01:14.065Z,15.45
2023-04-02T17:04:06.663Z,15.51
2023-04-02T17:06:43.513Z,15.35
2023-04-02T17:09:32.111Z,15.34
2023-04-02T17:12:23.283Z,15.31
2023-04-02T17:15:09.309Z,15.08
2023-04-02T17:17:41.664Z,15.25
2023-04-02T17:20:19.019Z,15.21
2023-04-02T17:22:46.881Z,14.59
2023-04-02T17:25:25.949Z,15.23
2023-04-02T17:27:57.055Z,15.14
2023-04-02T17:30:37.670Z,15.08
2023-04-02T17:33:26.730Z,14.99
2023-04-02T17:36:22.308Z,14.96
2023-04-02T17:38:48.858Z,14.82
2023-04-02T17:41:54.995Z,14.21
2023-04-02T17:44:50.434Z,14.64
2023-04-02T17:48:03.085Z,14.60
2023-04-02T17:50:50.667Z,14.28
2023-04-02T17:53:42.238Z,14.53
2023-04-02T17:56:22.928Z,14.49
2023-04-02T17:59:06.127Z,14.15
2023-04-02T18:01:49.997Z,14.48
2023-04-02T18:04:28.980Z,14.56
2023-04-02T18:07:24.619Z,14.07
2023-04-02T18:10:30.078Z,14.54
2023-04-02T18:13:06.931Z,14.37
2023-04-02T18:15:55.496Z,14.43
2023-04-02T18:18:31.071Z,14.33
2023-04-02T18:21:06.642Z,14.52
2023-04-02T18:24:06.276Z,14.16
2023-04-02T18:26:58.941Z,14.52
2023-04-02T18:29:54.474Z,14.45
2023-04-02T18:32:24.237Z,14.39
2023-04-02T18:35:02.986Z,14.46
2023-04-02T18:37:51.405Z,14.41
2023-04-02T18:40:55.849Z,14.28
2023-04-02T18:44:19.514Z,14.20
2023-04-02T18:47:03.511Z,11.75
2023-04-02T18:49:43.655Z,14.04
2023-04-02T18:52:16.447Z,14.08
2023-04-02T18:54:48.744Z,14.05
2023-04-02T18:57:22.163Z,13.51
2023-04-02T18:59:51.196Z,14.03
2023-04-02T19:02:20.736Z,13.89
2023-04-02T19:05:01.117Z,13.68
2023-04-02T19:07:29.650Z,13.45
2023-04-02T19:10:04.338Z,13.12
2023-04-02T19:12:33.820Z,13.45
2023-04-02T19:15:00.507Z,13.62
2023-04-02T19:17:44.270Z,13.81
2023-04-02T19:20:11.022Z,13.77
2023-04-02T19:23:12.208Z,13.81
2023-04-02T19:25:47.982Z,13.67
2023-04-02T19:28:33.419Z,13.40
2023-04-02T19:31:37.786Z,13.36
2023-04-02T19:34:16.391Z,13.43
2023-04-02T19:36:48.829Z,13.38
2023-04-02T19:39:46.823Z,13.36
2023-04-02T19:42:21.289Z,12.83
2023-04-02T19:44:51.741Z,12.87
2023-04-02T19:47:20.003Z,12.68
2023-04-02T19:49:46.651Z,13.02
2023-04-02T19:52:13.573Z,12.08
2023-04-02T19:54:40.495Z,12.68
2023-04-02T19:57:07.271Z,12.57
2023-04-02T19:59:33.945Z,12.97
2023-04-02T20:02:05.808Z,12.91
2023-04-02T20:04:32.546Z,12.92
2023-04-02T20:06:59.129Z,12.79
2023-04-02T20:09:25.780Z,12.82
2023-04-02T20:11:52.341Z,12.75
2023-04-02T20:14:18.916Z,12.61
2023-04-02T20:16:45.965Z,12.51
2023-04-02T20:19:14.146Z,12.64
2023-04-02T20:21:40.974Z,12.30
2023-04-02T20:24:08.299Z,12.30
2023-04-02T20:26:36.323Z,11.97
2023-04-02T20:29:03.257Z,12.34
2023-04-02T20:31:30.363Z,12.31
2023-04-02T20:33:58.278Z,12.30
2023-04-02T20:36:25.374Z,12.03
2023-04-02T20:38:52.592Z,12.16
2023-04-02T20:41:19.895Z,11.95
2023-04-02T20:43:46.493Z,12.31
2023-04-02T20:46:13.615Z,12.32
2023-04-02T20:48:40.917Z,12.31
2023-04-02T20:51:09.756Z,12.34
2023-04-02T20:53:37.900Z,12.25
2023-04-02T20:56:12.318Z,12.12
2023-04-02T20:58:39.749Z,12.29
2023-04-02T21:01:15.746Z,12.33
2023-04-02T21:03:42.981Z,12.30
2023-04-02T21:06:21.255Z,12.27
2023-04-02T21:08:48.958Z,12.15
2023-04-02T21:11:16.243Z,11.87
2023-04-02T21:13:44.185Z,12.03
2023-04-02T21:16:16.235Z,12.01
2023-04-02T21:18:43.259Z,11.99
2023-04-02T21:21:13.613Z,11.95
2023-04-02T21:23:41.945Z,11.67
2023-04-02T21:26:15.029Z,11.84
2023-04-02T21:28:42.238Z,11.50
2023-04-02T21:31:17.927Z,11.79
2023-04-02T21:33:47.014Z,11.91
2023-04-02T21:36:19.835Z,11.43
2023-04-02T21:38:49.757Z,11.19
2023-04-02T21:41:21.338Z,11.51
2023-04-02T21:43:48.618Z,11.63
2023-04-02T21:46:24.354Z,11.65
2023-04-02T21:48:52.367Z,11.50
2023-04-02T21:51:22.468Z,11.26
2023-04-02T21:53:49.576Z,10.90
2023-04-02T21:56:18.756Z,11.29
2023-04-02T21:58:47.010Z,11.36
2023-04-02T22:01:26.658Z,11.30
2023-04-02T22:03:55.545Z,11.53
2023-04-02T22:06:23.784Z,11.63
2023-04-02T22:09:06.051Z,11.61
2023-04-02T22:11:35.809Z,11.23
2023-04-02T22:14:03.834Z,11.58
2023-04-02T22:16:31.846Z,11.46
2023-04-02T22:19:01.827Z,11.39
2023-04-02T22:21:30.795Z,11.38
2023-04-02T22:24:01.713Z,11.35
2023-04-02T22:26:28.973Z,11.38
2023-04-02T22:28:55.971Z,10.89
2023-04-02T22:31:24.734Z,11.18
2023-04-02T22:33:52.473Z,11.25
2023-04-02T22:36:20.141Z,11.17
2023-04-02T22:38:46.784Z,10.92
2023-04-02T22:41:16.276Z,11.53
2023-04-02T22:43:44.549Z,11.61
2023-04-02T22:46:13.222Z,11.32
2023-04-02T22:48:40.932Z,11.45
2023-04-02T22:51:08.884Z,11.41
2023-04-02T22:53:36.718Z,11.51
2023-04-02T22:56:06.891Z,11.53
2023-04-02T22:58:34.231Z,11.51
2023-04-02T23:01:08.932Z,11.53
2023-04-02T23:03:35.651Z,11.43
2023-04-02T23:06:08.544Z,11.29
2023-04-02T23:08:36.745Z,11.39
2023-04-02T23:11:09.904Z,11.31
2023-04-02T23:13:37.847Z,11.06
2023-04-02T23:16:06.628Z,11.24
2023-04-02T23:18:34.756Z,11.08
2023-04-02T23:21:01.954Z,11.30
2023-04-02T23:23:29.950Z,10.87
2023-04-02T23:26:21.169Z,11.25
2023-04-02T23:28:48.833Z,11.08
2023-04-02T23:31:18.655Z,10.60
2023-04-02T23:33:45.996Z,11.16
2023-04-02T23:36:27.581Z,11.06
2023-04-02T23:38:56.044Z,10.85
2023-04-02T23:41:26.907Z,10.82
2023-04-02T23:43:55.525Z,10.66
2023-04-02T23:46:23.128Z,10.85
2023-04-02T23:48:50.696Z,10.75
2023-04-02T23:51:17.700Z,10.72
2023-04-02T23:53:45.470Z,10.67
2023-04-02T23:56:12.248Z,9.25
2023-04-02T23:58:38.898Z,10.37
